sensor_id;sensor_type;location;lat;lon;timestamp;P1;durP1;ratioP1;P2;durP2;ratioP2
58055;SDS011;53159;55.152;36.614;2022-08-02T00:00:56;7.60;;;6.90;;
58055;SDS011;53159;55.152;36.614;2022-08-02T00:03:26;9.32;;;7.20;;
58055;SDS011;53159;55.152;36.614;2022-08-02T00:05:53;11.25;;;7.18;;
58055;SDS011;53159;55.152;36.614;2022-08-02T00:08:20;14.27;;;7.20;;
58055;SDS011;53159;55.152;36.614;2022-08-02T00:10:48;6.28;;;5.70;;
58055;SDS011;53159;55.152;36.614;2022-08-02T00:13:15;9.27;;;6.25;;
58055;SDS011;53159;55.152;36.614;2022-08-02T00:15:43;6.40;;;4.93;;
58055;SDS011;53159;55.152;36.614;2022-08-02T00:18:10;6.93;;;6.22;;
58055;SDS011;53159;55.152;36.614;2022-08-02T00:20:37;10.07;;;6.20;;
58055;SDS011;53159;55.152;36.614;2022-08-02T00:23:04;5.90;;;4.63;;
58055;SDS011;53159;55.152;36.614;2022-08-02T00:25:30;8.85;;;6.72;;
58055;SDS011;53159;55.152;36.614;2022-08-02T00:27:58;7.57;;;5.90;;
58055;SDS011;53159;55.152;36.614;2022-08-02T00:30:26;9.93;;;7.22;;
58055;SDS011;53159;55.152;36.614;2022-08-02T00:32:54;8.35;;;6.45;;
58055;SDS011;53159;55.152;36.614;2022-08-02T00:35:20;10.80;;;6.55;;
58055;SDS011;53159;55.152;36.614;2022-08-02T00:37:48;6.95;;;4.68;;
58055;SDS011;53159;55.152;36.614;2022-08-02T00:40:19;4.35;;;3.95;;
58055;SDS011;53159;55.152;36.614;2022-08-02T00:45:34;7.68;;;4.88;;
58055;SDS011;53159;55.152;36.614;2022-08-02T00:48:03;7.32;;;5.00;;
58055;SDS011;53159;55.152;36.614;2022-08-02T00:50:32;9.63;;;5.07;;
58055;SDS011;53159;55.152;36.614;2022-08-02T00:53:01;6.70;;;5.35;;
58055;SDS011;53159;55.152;36.614;2022-08-02T00:55:29;8.95;;;5.22;;
58055;SDS011;53159;55.152;36.614;2022-08-02T00:57:57;6.40;;;3.95;;
58055;SDS011;53159;55.152;36.614;2022-08-02T01:00:23;6.43;;;5.82;;
58055;SDS011;53159;55.152;36.614;2022-08-02T01:02:50;5.90;;;4.28;;
58055;SDS011;53159;55.152;36.614;2022-08-02T01:05:18;5.40;;;4.50;;
58055;SDS011;53159;55.152;36.614;2022-08-02T01:07:47;7.53;;;5.05;;
58055;SDS011;53159;55.152;36.614;2022-08-02T01:10:13;8.93;;;5.80;;
58055;SDS011;53159;55.152;36.614;2022-08-02T01:12:41;5.47;;;4.45;;
58055;SDS011;53159;55.152;36.614;2022-08-02T01:15:07;8.07;;;5.57;;
58055;SDS011;53159;55.152;36.614;2022-08-02T01:23:13;6.35;;;5.68;;
58055;SDS011;53159;55.152;36.614;2022-08-02T01:34:40;10.03;;;9.03;;
58055;SDS011;53159;55.152;36.614;2022-08-02T01:37:15;9.48;;;7.03;;
58055;SDS011;53159;55.152;36.614;2022-08-02T01:39:50;8.43;;;4.30;;
58055;SDS011;53159;55.152;36.614;2022-08-02T01:42:20;9.93;;;7.78;;
58055;SDS011;53159;55.152;36.614;2022-08-02T01:44:51;6.47;;;5.88;;
58055;SDS011;53159;55.152;36.614;2022-08-02T01:47:20;5.20;;;4.53;;
58055;SDS011;53159;55.152;36.614;2022-08-02T01:49:56;9.15;;;4.72;;
58055;SDS011;53159;55.152;36.614;2022-08-02T01:52:28;8.20;;;5.38;;
58055;SDS011;53159;55.152;36.614;2022-08-02T01:55:02;5.72;;;4.85;;
58055;SDS011;53159;55.152;36.614;2022-08-02T01:57:36;5.68;;;5.10;;
58055;SDS011;53159;55.152;36.614;2022-08-02T02:00:08;6.97;;;5.22;;
58055;SDS011;53159;55.152;36.614;2022-08-02T02:02:38;5.53;;;5.03;;
58055;SDS011;53159;55.152;36.614;2022-08-02T02:05:10;6.40;;;5.78;;
58055;SDS011;53159;55.152;36.614;2022-08-02T02:07:41;7.78;;;5.07;;
58055;SDS011;53159;55.152;36.614;2022-08-02T02:10:14;7.63;;;5.30;;
58055;SDS011;53159;55.152;36.614;2022-08-02T02:12:45;5.68;;;5.07;;
58055;SDS011;53159;55.152;36.614;2022-08-02T02:15:39;8.05;;;5.10;;
58055;SDS011;53159;55.152;36.614;2022-08-02T02:18:22;9.32;;;7.50;;
58055;SDS011;53159;55.152;36.614;2022-08-02T02:20:51;7.50;;;5.90;;
58055;SDS011;53159;55.152;36.614;2022-08-02T02:23:19;6.88;;;6.18;;
58055;SDS011;53159;55.152;36.614;2022-08-02T02:25:45;7.70;;;5.57;;
58055;SDS011;53159;55.152;36.614;2022-08-02T02:28:34;8.82;;;7.93;;
58055;SDS011;53159;55.152;36.614;2022-08-02T02:31:08;10.60;;;6.72;;
58055;SDS011;53159;55.152;36.614;2022-08-02T02:33:59;7.10;;;6.40;;
58055;SDS011;53159;55.152;36.614;2022-08-02T02:36:30;9.05;;;7.05;;
58055;SDS011;53159;55.152;36.614;2022-08-02T02:39:19;12.90;;;7.28;;
58055;SDS011;53159;55.152;36.614;2022-08-02T02:41:48;13.50;;;6.53;;
58055;SDS011;53159;55.152;36.614;2022-08-02T02:44:18;8.73;;;5.93;;
58055;SDS011;53159;55.152;36.614;2022-08-02T02:46:48;6.85;;;5.90;;
58055;SDS011;53159;55.152;36.614;2022-08-02T02:49:19;8.73;;;5.43;;
58055;SDS011;53159;55.152;36.614;2022-08-02T02:51:46;6.43;;;5.47;;
58055;SDS011;53159;55.152;36.614;2022-08-02T02:54:14;7.20;;;5.75;;
58055;SDS011;53159;55.152;36.614;2022-08-02T02:56:44;6.70;;;5.43;;
58055;SDS011;53159;55.152;36.614;2022-08-02T02:59:13;6.47;;;5.22;;
58055;SDS011;53159;55.152;36.614;2022-08-02T03:01:43;6.53;;;5.88;;
58055;SDS011;53159;55.152;36.614;2022-08-02T03:04:11;6.97;;;4.88;;
58055;SDS011;53159;55.152;36.614;2022-08-02T03:06:40;8.65;;;6.20;;
58055;SDS011;53159;55.152;36.614;2022-08-02T03:09:07;7.68;;;5.60;;
58055;SDS011;53159;55.152;36.614;2022-08-02T03:11:36;6.00;;;5.40;;
58055;SDS011;53159;55.152;36.614;2022-08-02T03:14:06;6.47;;;5.85;;
58055;SDS011;53159;55.152;36.614;2022-08-02T03:16:45;6.55;;;5.25;;
58055;SDS011;53159;55.152;36.614;2022-08-02T03:19:13;10.18;;;6.05;;
58055;SDS011;53159;55.152;36.614;2022-08-02T03:21:42;6.57;;;5.25;;
58055;SDS011;53159;55.152;36.614;2022-08-02T03:24:09;6.30;;;5.38;;
58055;SDS011;53159;55.152;36.614;2022-08-02T03:26:37;10.10;;;6.45;;
58055;SDS011;53159;55.152;36.614;2022-08-02T03:29:04;7.75;;;5.18;;
58055;SDS011;53159;55.152;36.614;2022-08-02T03:31:32;7.82;;;5.88;;
58055;SDS011;53159;55.152;36.614;2022-08-02T03:34:00;7.18;;;5.97;;
58055;SDS011;53159;55.152;36.614;2022-08-02T03:36:29;9.65;;;5.50;;
58055;SDS011;53159;55.152;36.614;2022-08-02T03:38:58;6.40;;;5.80;;
58055;SDS011;53159;55.152;36.614;2022-08-02T03:41:27;5.65;;;4.60;;
58055;SDS011;53159;55.152;36.614;2022-08-02T03:43:55;5.72;;;5.18;;
58055;SDS011;53159;55.152;36.614;2022-08-02T03:46:23;7.55;;;5.13;;
58055;SDS011;53159;55.152;36.614;2022-08-02T03:48:51;7.72;;;4.85;;
58055;SDS011;53159;55.152;36.614;2022-08-02T03:51:19;5.43;;;3.92;;
58055;SDS011;53159;55.152;36.614;2022-08-02T03:53:48;7.13;;;4.00;;
58055;SDS011;53159;55.152;36.614;2022-08-02T03:56:16;5.63;;;4.47;;
58055;SDS011;53159;55.152;36.614;2022-08-02T03:58:43;5.20;;;4.70;;
58055;SDS011;53159;55.152;36.614;2022-08-02T04:01:11;5.00;;;4.50;;
58055;SDS011;53159;55.152;36.614;2022-08-02T04:03:40;6.35;;;4.78;;
58055;SDS011;53159;55.152;36.614;2022-08-02T04:06:07;4.93;;;4.03;;
58055;SDS011;53159;55.152;36.614;2022-08-02T04:08:36;5.55;;;3.83;;
58055;SDS011;53159;55.152;36.614;2022-08-02T04:11:03;5.18;;;3.53;;
58055;SDS011;53159;55.152;36.614;2022-08-02T04:13:49;11.52;;;3.67;;
58055;SDS011;53159;55.152;36.614;2022-08-02T04:16:21;5.45;;;3.72;;
58055;SDS011;53159;55.152;36.614;2022-08-02T04:18:59;8.70;;;4.22;;
58055;SDS011;53159;55.152;36.614;2022-08-02T04:21:30;6.35;;;3.55;;
58055;SDS011;53159;55.152;36.614;2022-08-02T04:24:01;8.05;;;3.22;;
58055;SDS011;53159;55.152;36.614;2022-08-02T04:26:30;5.20;;;4.10;;
58055;SDS011;53159;55.152;36.614;2022-08-02T04:28:59;7.13;;;3.90;;
58055;SDS011;53159;55.152;36.614;2022-08-02T04:31:28;5.03;;;3.60;;
58055;SDS011;53159;55.152;36.614;2022-08-02T04:33:55;5.30;;;3.58;;
58055;SDS011;53159;55.152;36.614;2022-08-02T04:36:24;4.55;;;3.38;;
58055;SDS011;53159;55.152;36.614;2022-08-02T04:38:53;5.15;;;3.67;;
58055;SDS011;53159;55.152;36.614;2022-08-02T04:41:20;4.95;;;3.58;;
58055;SDS011;53159;55.152;36.614;2022-08-02T04:43:47;4.68;;;3.72;;
58055;SDS011;53159;55.152;36.614;2022-08-02T04:46:14;6.28;;;4.10;;
58055;SDS011;53159;55.152;36.614;2022-08-02T04:48:41;4.82;;;3.38;;
58055;SDS011;53159;55.152;36.614;2022-08-02T04:51:08;6.80;;;3.78;;
58055;SDS011;53159;55.152;36.614;2022-08-02T04:53:35;5.95;;;4.00;;
58055;SDS011;53159;55.152;36.614;2022-08-02T04:56:05;8.60;;;3.78;;
58055;SDS011;53159;55.152;36.614;2022-08-02T04:58:31;6.72;;;3.30;;
58055;SDS011;53159;55.152;36.614;2022-08-02T05:00:58;4.75;;;3.05;;
58055;SDS011;53159;55.152;36.614;2022-08-02T05:03:26;6.32;;;3.88;;
58055;SDS011;53159;55.152;36.614;2022-08-02T05:05:52;4.88;;;4.05;;
58055;SDS011;53159;55.152;36.614;2022-08-02T05:08:19;8.80;;;4.47;;
58055;SDS011;53159;55.152;36.614;2022-08-02T05:10:47;8.23;;;4.15;;
58055;SDS011;53159;55.152;36.614;2022-08-02T05:13:15;7.07;;;3.67;;
58055;SDS011;53159;55.152;36.614;2022-08-02T05:15:43;9.20;;;3.90;;
58055;SDS011;53159;55.152;36.614;2022-08-02T05:18:12;5.25;;;3.50;;
58055;SDS011;53159;55.152;36.614;2022-08-02T05:20:43;7.03;;;3.40;;
58055;SDS011;53159;55.152;36.614;2022-08-02T05:23:10;7.90;;;4.07;;
58055;SDS011;53159;55.152;36.614;2022-08-02T05:25:36;6.50;;;4.13;;
58055;SDS011;53159;55.152;36.614;2022-08-02T05:28:03;6.88;;;3.67;;
58055;SDS011;53159;55.152;36.614;2022-08-02T05:30:30;3.95;;;3.17;;
58055;SDS011;53159;55.152;36.614;2022-08-02T05:33:16;6.82;;;3.95;;
58055;SDS011;53159;55.152;36.614;2022-08-02T05:35:43;6.53;;;3.55;;
58055;SDS011;53159;55.152;36.614;2022-08-02T05:38:11;6.28;;;3.53;;
58055;SDS011;53159;55.152;36.614;2022-08-02T05:40:38;4.25;;;2.95;;
58055;SDS011;53159;55.152;36.614;2022-08-02T05:43:12;3.65;;;2.75;;
58055;SDS011;53159;55.152;36.614;2022-08-02T05:45:42;4.85;;;3.30;;
58055;SDS011;53159;55.152;36.614;2022-08-02T05:48:09;4.57;;;3.30;;
58055;SDS011;53159;55.152;36.614;2022-08-02T05:50:37;6.60;;;3.20;;
58055;SDS011;53159;55.152;36.614;2022-08-02T05:53:11;6.13;;;3.65;;
58055;SDS011;53159;55.152;36.614;2022-08-02T05:55:46;4.65;;;3.08;;
58055;SDS011;53159;55.152;36.614;2022-08-02T05:58:48;8.57;;;4.00;;
58055;SDS011;53159;55.152;36.614;2022-08-02T06:03:52;5.53;;;3.25;;
58055;SDS011;53159;55.152;36.614;2022-08-02T06:06:22;8.05;;;3.28;;
58055;SDS011;53159;55.152;36.614;2022-08-02T06:08:57;11.18;;;3.45;;
58055;SDS011;53159;55.152;36.614;2022-08-02T06:11:38;8.07;;;3.60;;
58055;SDS011;53159;55.152;36.614;2022-08-02T06:14:13;6.57;;;3.17;;
58055;SDS011;53159;55.152;36.614;2022-08-02T06:16:41;4.75;;;3.15;;
58055;SDS011;53159;55.152;36.614;2022-08-02T06:19:13;4.57;;;3.20;;
58055;SDS011;53159;55.152;36.614;2022-08-02T06:21:40;15.30;;;7.63;;
58055;SDS011;53159;55.152;36.614;2022-08-02T06:24:08;8.35;;;6.53;;
58055;SDS011;53159;55.152;36.614;2022-08-02T06:26:35;11.55;;;6.57;;
58055;SDS011;53159;55.152;36.614;2022-08-02T06:29:02;6.78;;;3.40;;
58055;SDS011;53159;55.152;36.614;2022-08-02T06:31:31;10.52;;;3.35;;
58055;SDS011;53159;55.152;36.614;2022-08-02T06:33:57;4.03;;;3.00;;
58055;SDS011;53159;55.152;36.614;2022-08-02T06:39:13;5.15;;;2.90;;
58055;SDS011;53159;55.152;36.614;2022-08-02T06:41:46;2.78;;;2.58;;
58055;SDS011;53159;55.152;36.614;2022-08-02T06:44:24;5.97;;;2.58;;
58055;SDS011;53159;55.152;36.614;2022-08-02T06:46:51;3.50;;;2.08;;
58055;SDS011;53159;55.152;36.614;2022-08-02T06:49:19;6.85;;;2.20;;
58055;SDS011;53159;55.152;36.614;2022-08-02T06:51:46;3.38;;;2.15;;
58055;SDS011;53159;55.152;36.614;2022-08-02T06:54:14;9.70;;;2.95;;
58055;SDS011;53159;55.152;36.614;2022-08-02T06:56:46;9.15;;;2.65;;
58055;SDS011;53159;55.152;36.614;2022-08-02T06:59:14;5.45;;;2.85;;
58055;SDS011;53159;55.152;36.614;2022-08-02T07:01:44;3.88;;;2.38;;
58055;SDS011;53159;55.152;36.614;2022-08-02T07:04:10;3.45;;;2.60;;
58055;SDS011;53159;55.152;36.614;2022-08-02T07:06:40;3.28;;;2.67;;
58055;SDS011;53159;55.152;36.614;2022-08-02T07:09:07;4.53;;;2.55;;
58055;SDS011;53159;55.152;36.614;2022-08-02T07:11:33;6.53;;;2.75;;
58055;SDS011;53159;55.152;36.614;2022-08-02T07:14:19;3.40;;;3.10;;
58055;SDS011;53159;55.152;36.614;2022-08-02T07:16:46;3.70;;;2.90;;
58055;SDS011;53159;55.152;36.614;2022-08-02T07:19:13;5.38;;;2.60;;
58055;SDS011;53159;55.152;36.614;2022-08-02T07:21:40;5.53;;;2.75;;
58055;SDS011;53159;55.152;36.614;2022-08-02T07:24:07;5.63;;;2.63;;
58055;SDS011;53159;55.152;36.614;2022-08-02T07:26:34;2.88;;;2.58;;
58055;SDS011;53159;55.152;36.614;2022-08-02T07:29:02;5.30;;;2.88;;
58055;SDS011;53159;55.152;36.614;2022-08-02T07:31:29;4.60;;;2.35;;
58055;SDS011;53159;55.152;36.614;2022-08-02T07:33:56;2.80;;;2.00;;
58055;SDS011;53159;55.152;36.614;2022-08-02T07:36:24;4.15;;;2.03;;
58055;SDS011;53159;55.152;36.614;2022-08-02T07:38:51;2.65;;;1.92;;
58055;SDS011;53159;55.152;36.614;2022-08-02T07:41:18;5.47;;;2.25;;
58055;SDS011;53159;55.152;36.614;2022-08-02T07:43:44;3.70;;;2.38;;
58055;SDS011;53159;55.152;36.614;2022-08-02T07:46:12;2.22;;;2.03;;
58055;SDS011;53159;55.152;36.614;2022-08-02T07:48:39;3.03;;;2.72;;
58055;SDS011;53159;55.152;36.614;2022-08-02T07:51:07;1.88;;;1.77;;
58055;SDS011;53159;55.152;36.614;2022-08-02T07:53:35;5.82;;;2.85;;
58055;SDS011;53159;55.152;36.614;2022-08-02T07:56:02;2.40;;;2.20;;
58055;SDS011;53159;55.152;36.614;2022-08-02T07:58:29;3.85;;;2.28;;
58055;SDS011;53159;55.152;36.614;2022-08-02T08:00:57;10.77;;;2.53;;
58055;SDS011;53159;55.152;36.614;2022-08-02T08:03:24;4.30;;;2.22;;
58055;SDS011;53159;55.152;36.614;2022-08-02T08:05:50;2.47;;;2.15;;
58055;SDS011;53159;55.152;36.614;2022-08-02T08:08:19;3.30;;;2.13;;
58055;SDS011;53159;55.152;36.614;2022-08-02T08:10:46;8.45;;;1.92;;
58055;SDS011;53159;55.152;36.614;2022-08-02T08:13:14;2.75;;;2.50;;
58055;SDS011;53159;55.152;36.614;2022-08-02T08:15:42;3.00;;;2.10;;
58055;SDS011;53159;55.152;36.614;2022-08-02T08:18:09;3.33;;;2.33;;
58055;SDS011;53159;55.152;36.614;2022-08-02T08:20:37;3.28;;;1.85;;
58055;SDS011;53159;55.152;36.614;2022-08-02T08:23:03;2.83;;;2.10;;
58055;SDS011;53159;55.152;36.614;2022-08-02T08:25:31;2.95;;;1.98;;
58055;SDS011;53159;55.152;36.614;2022-08-02T08:27:59;3.53;;;2.00;;
58055;SDS011;53159;55.152;36.614;2022-08-02T08:30:26;1.88;;;1.77;;
58055;SDS011;53159;55.152;36.614;2022-08-02T08:32:53;2.20;;;2.00;;
58055;SDS011;53159;55.152;36.614;2022-08-02T08:35:21;11.65;;;2.20;;
58055;SDS011;53159;55.152;36.614;2022-08-02T08:37:47;3.65;;;2.08;;
58055;SDS011;53159;55.152;36.614;2022-08-02T08:40:14;9.27;;;2.08;;
58055;SDS011;53159;55.152;36.614;2022-08-02T08:42:43;3.88;;;1.80;;
58055;SDS011;53159;55.152;36.614;2022-08-02T08:45:11;5.90;;;1.80;;
58055;SDS011;53159;55.152;36.614;2022-08-02T08:47:40;1.95;;;1.85;;
58055;SDS011;53159;55.152;36.614;2022-08-02T08:50:09;2.42;;;2.05;;
58055;SDS011;53159;55.152;36.614;2022-08-02T08:52:43;3.22;;;2.13;;
58055;SDS011;53159;55.152;36.614;2022-08-02T08:55:15;2.63;;;2.03;;
58055;SDS011;53159;55.152;36.614;2022-08-02T08:57:44;1.90;;;1.80;;
58055;SDS011;53159;55.152;36.614;2022-08-02T09:00:11;1.95;;;1.85;;
58055;SDS011;53159;55.152;36.614;2022-08-02T09:02:41;3.28;;;2.38;;
58055;SDS011;53159;55.152;36.614;2022-08-02T09:05:10;3.55;;;2.20;;
58055;SDS011;53159;55.152;36.614;2022-08-02T09:07:40;2.88;;;2.45;;
58055;SDS011;53159;55.152;36.614;2022-08-02T09:15:42;5.10;;;1.50;;
58055;SDS011;53159;55.152;36.614;2022-08-02T09:18:12;3.17;;;2.10;;
58055;SDS011;53159;55.152;36.614;2022-08-02T09:20:57;5.97;;;2.20;;
58055;SDS011;53159;55.152;36.614;2022-08-02T09:23:25;4.40;;;2.42;;
58055;SDS011;53159;55.152;36.614;2022-08-02T09:26:01;4.88;;;2.65;;
58055;SDS011;53159;55.152;36.614;2022-08-02T09:28:30;2.53;;;2.33;;
58055;SDS011;53159;55.152;36.614;2022-08-02T09:31:08;3.40;;;2.20;;
58055;SDS011;53159;55.152;36.614;2022-08-02T09:33:36;2.72;;;2.30;;
58055;SDS011;53159;55.152;36.614;2022-08-02T09:36:15;3.60;;;2.42;;
58055;SDS011;53159;55.152;36.614;2022-08-02T09:41:28;4.95;;;2.58;;
58055;SDS011;53159;55.152;36.614;2022-08-02T09:43:57;2.13;;;1.92;;
58055;SDS011;53159;55.152;36.614;2022-08-02T09:46:27;4.22;;;2.22;;
58055;SDS011;53159;55.152;36.614;2022-08-02T09:48:56;6.20;;;2.65;;
58055;SDS011;53159;55.152;36.614;2022-08-02T09:51:32;4.65;;;2.20;;
58055;SDS011;53159;55.152;36.614;2022-08-02T09:54:20;3.90;;;2.30;;
58055;SDS011;53159;55.152;36.614;2022-08-02T09:57:00;2.03;;;1.77;;
58055;SDS011;53159;55.152;36.614;2022-08-02T09:59:29;3.95;;;1.90;;
58055;SDS011;53159;55.152;36.614;2022-08-02T10:01:57;7.07;;;2.65;;
58055;SDS011;53159;55.152;36.614;2022-08-02T10:04:26;3.40;;;2.30;;
58055;SDS011;53159;55.152;36.614;2022-08-02T10:06:55;4.47;;;2.05;;
58055;SDS011;53159;55.152;36.614;2022-08-02T10:09:24;8.85;;;2.10;;
58055;SDS011;53159;55.152;36.614;2022-08-02T10:11:54;4.65;;;2.25;;
58055;SDS011;53159;55.152;36.614;2022-08-02T10:14:22;4.53;;;1.88;;
58055;SDS011;53159;55.152;36.614;2022-08-02T10:16:49;5.35;;;2.30;;
58055;SDS011;53159;55.152;36.614;2022-08-02T10:19:19;3.20;;;1.75;;
58055;SDS011;53159;55.152;36.614;2022-08-02T10:21:51;2.72;;;2.00;;
58055;SDS011;53159;55.152;36.614;2022-08-02T10:24:28;4.38;;;1.95;;
58055;SDS011;53159;55.152;36.614;2022-08-02T10:26:58;2.30;;;1.85;;
58055;SDS011;53159;55.152;36.614;2022-08-02T10:29:29;1.52;;;1.42;;
58055;SDS011;53159;55.152;36.614;2022-08-02T10:32:07;5.30;;;2.22;;
58055;SDS011;53159;55.152;36.614;2022-08-02T10:35:01;7.35;;;2.15;;
58055;SDS011;53159;55.152;36.614;2022-08-02T10:37:37;5.13;;;2.20;;
58055;SDS011;53159;55.152;36.614;2022-08-02T10:40:06;5.65;;;1.90;;
58055;SDS011;53159;55.152;36.614;2022-08-02T10:42:48;6.30;;;2.20;;
58055;SDS011;53159;55.152;36.614;2022-08-02T10:45:19;3.67;;;1.95;;
58055;SDS011;53159;55.152;36.614;2022-08-02T10:55:59;2.28;;;1.75;;
58055;SDS011;53159;55.152;36.614;2022-08-02T10:58:28;2.90;;;2.00;;
58055;SDS011;53159;55.152;36.614;2022-08-02T11:01:03;4.40;;;2.08;;
58055;SDS011;53159;55.152;36.614;2022-08-02T11:03:57;3.08;;;2.03;;
58055;SDS011;53159;55.152;36.614;2022-08-02T11:06:25;2.70;;;1.60;;
58055;SDS011;53159;55.152;36.614;2022-08-02T11:14:31;2.67;;;1.90;;
58055;SDS011;53159;55.152;36.614;2022-08-02T11:17:05;1.65;;;1.55;;
58055;SDS011;53159;55.152;36.614;2022-08-02T11:20:12;2.17;;;1.77;;
58055;SDS011;53159;55.152;36.614;2022-08-02T11:22:51;4.57;;;1.90;;
58055;SDS011;53159;55.152;36.614;2022-08-02T11:27:53;2.60;;;1.90;;
58055;SDS011;53159;55.152;36.614;2022-08-02T11:30:21;6.43;;;1.85;;
58055;SDS011;53159;55.152;36.614;2022-08-02T11:32:48;5.45;;;1.63;;
58055;SDS011;53159;55.152;36.614;2022-08-02T11:35:15;4.85;;;2.03;;
58055;SDS011;53159;55.152;36.614;2022-08-02T11:37:43;3.22;;;2.03;;
58055;SDS011;53159;55.152;36.614;2022-08-02T11:40:12;3.53;;;2.33;;
58055;SDS011;53159;55.152;36.614;2022-08-02T11:42:41;3.15;;;1.80;;
58055;SDS011;53159;55.152;36.614;2022-08-02T11:45:12;4.20;;;1.90;;
58055;SDS011;53159;55.152;36.614;2022-08-02T11:47:50;3.83;;;1.83;;
58055;SDS011;53159;55.152;36.614;2022-08-02T11:50:21;3.13;;;2.00;;
58055;SDS011;53159;55.152;36.614;2022-08-02T11:52:50;3.90;;;2.00;;
58055;SDS011;53159;55.152;36.614;2022-08-02T11:55:27;4.75;;;2.10;;
58055;SDS011;53159;55.152;36.614;2022-08-02T11:58:03;8.02;;;2.38;;
58055;SDS011;53159;55.152;36.614;2022-08-02T12:00:33;4.15;;;2.28;;
58055;SDS011;53159;55.152;36.614;2022-08-02T12:03:01;2.95;;;1.98;;
58055;SDS011;53159;55.152;36.614;2022-08-02T12:05:28;5.47;;;2.15;;
58055;SDS011;53159;55.152;36.614;2022-08-02T12:07:58;3.72;;;1.75;;
58055;SDS011;53159;55.152;36.614;2022-08-02T12:10:25;2.88;;;2.13;;
58055;SDS011;53159;55.152;36.614;2022-08-02T12:12:55;2.45;;;1.77;;
58055;SDS011;53159;55.152;36.614;2022-08-02T12:15:39;5.05;;;2.50;;
58055;SDS011;53159;55.152;36.614;2022-08-02T12:18:17;3.57;;;2.00;;
58055;SDS011;53159;55.152;36.614;2022-08-02T12:21:19;2.63;;;1.67;;
58055;SDS011;53159;55.152;36.614;2022-08-02T12:23:48;3.13;;;2.05;;
58055;SDS011;53159;55.152;36.614;2022-08-02T12:26:15;2.88;;;1.63;;
58055;SDS011;53159;55.152;36.614;2022-08-02T12:28:43;2.58;;;2.38;;
58055;SDS011;53159;55.152;36.614;2022-08-02T12:31:12;17.23;;;3.38;;
58055;SDS011;53159;55.152;36.614;2022-08-02T12:33:51;4.40;;;2.20;;
58055;SDS011;53159;55.152;36.614;2022-08-02T12:36:23;4.30;;;2.05;;
58055;SDS011;53159;55.152;36.614;2022-08-02T12:38:56;2.00;;;1.75;;
58055;SDS011;53159;55.152;36.614;2022-08-02T12:41:27;6.50;;;2.22;;
58055;SDS011;53159;55.152;36.614;2022-08-02T12:43:55;7.20;;;2.15;;
58055;SDS011;53159;55.152;36.614;2022-08-02T12:46:23;4.47;;;2.17;;
58055;SDS011;53159;55.152;36.614;2022-08-02T12:48:50;7.22;;;1.95;;
58055;SDS011;53159;55.152;36.614;2022-08-02T12:51:24;6.90;;;2.38;;
58055;SDS011;53159;55.152;36.614;2022-08-02T12:53:54;3.55;;;2.42;;
58055;SDS011;53159;55.152;36.614;2022-08-02T12:56:37;2.15;;;2.00;;
58055;SDS011;53159;55.152;36.614;2022-08-02T12:59:05;2.03;;;1.67;;
58055;SDS011;53159;55.152;36.614;2022-08-02T13:01:32;3.15;;;1.98;;
58055;SDS011;53159;55.152;36.614;2022-08-02T13:04:00;3.33;;;2.25;;
58055;SDS011;53159;55.152;36.614;2022-08-02T13:06:28;4.00;;;2.05;;
58055;SDS011;53159;55.152;36.614;2022-08-02T13:08:57;3.25;;;1.95;;
58055;SDS011;53159;55.152;36.614;2022-08-02T13:11:25;2.40;;;1.55;;
58055;SDS011;53159;55.152;36.614;2022-08-02T13:13:53;1.75;;;1.60;;
58055;SDS011;53159;55.152;36.614;2022-08-02T13:16:21;2.85;;;1.60;;
58055;SDS011;53159;55.152;36.614;2022-08-02T13:18:49;3.40;;;2.03;;
58055;SDS011;53159;55.152;36.614;2022-08-02T13:21:17;2.15;;;1.73;;
58055;SDS011;53159;55.152;36.614;2022-08-02T13:23:43;4.20;;;1.50;;
58055;SDS011;53159;55.152;36.614;2022-08-02T13:26:13;3.25;;;1.80;;
58055;SDS011;53159;55.152;36.614;2022-08-02T13:28:41;2.00;;;1.70;;
58055;SDS011;53159;55.152;36.614;2022-08-02T13:31:10;3.33;;;1.92;;
58055;SDS011;53159;55.152;36.614;2022-08-02T13:33:42;2.17;;;1.92;;
58055;SDS011;53159;55.152;36.614;2022-08-02T13:36:10;2.15;;;1.60;;
58055;SDS011;53159;55.152;36.614;2022-08-02T13:38:44;1.90;;;1.67;;
58055;SDS011;53159;55.152;36.614;2022-08-02T13:41:10;2.40;;;1.77;;
58055;SDS011;53159;55.152;36.614;2022-08-02T13:43:38;2.83;;;1.60;;
58055;SDS011;53159;55.152;36.614;2022-08-02T13:46:06;3.15;;;1.85;;
58055;SDS011;53159;55.152;36.614;2022-08-02T13:48:34;2.85;;;1.77;;
58055;SDS011;53159;55.152;36.614;2022-08-02T13:51:01;3.47;;;1.90;;
58055;SDS011;53159;55.152;36.614;2022-08-02T13:53:27;2.63;;;1.70;;
58055;SDS011;53159;55.152;36.614;2022-08-02T13:55:55;3.67;;;1.80;;
58055;SDS011;53159;55.152;36.614;2022-08-02T13:58:23;8.00;;;2.75;;
58055;SDS011;53159;55.152;36.614;2022-08-02T14:00:51;3.92;;;2.20;;
58055;SDS011;53159;55.152;36.614;2022-08-02T14:03:18;4.75;;;2.05;;
58055;SDS011;53159;55.152;36.614;2022-08-02T14:05:46;1.98;;;1.73;;
58055;SDS011;53159;55.152;36.614;2022-08-02T14:08:14;3.47;;;1.83;;
58055;SDS011;53159;55.152;36.614;2022-08-02T14:10:43;2.75;;;1.60;;
58055;SDS011;53159;55.152;36.614;2022-08-02T14:13:10;3.88;;;2.10;;
58055;SDS011;53159;55.152;36.614;2022-08-02T14:15:36;4.15;;;2.00;;
58055;SDS011;53159;55.152;36.614;2022-08-02T14:18:03;3.88;;;2.22;;
58055;SDS011;53159;55.152;36.614;2022-08-02T14:20:30;5.63;;;2.20;;
58055;SDS011;53159;55.152;36.614;2022-08-02T14:22:58;4.63;;;1.50;;
58055;SDS011;53159;55.152;36.614;2022-08-02T14:25:25;2.65;;;1.88;;
58055;SDS011;53159;55.152;36.614;2022-08-02T14:27:52;2.35;;;1.90;;
58055;SDS011;53159;55.152;36.614;2022-08-02T14:30:18;1.95;;;1.75;;
58055;SDS011;53159;55.152;36.614;2022-08-02T14:32:47;2.08;;;1.90;;
58055;SDS011;53159;55.152;36.614;2022-08-02T14:35:16;2.63;;;2.00;;
58055;SDS011;53159;55.152;36.614;2022-08-02T14:37:44;5.40;;;1.80;;
58055;SDS011;53159;55.152;36.614;2022-08-02T14:40:12;2.38;;;1.80;;
58055;SDS011;53159;55.152;36.614;2022-08-02T14:42:39;3.45;;;2.17;;
58055;SDS011;53159;55.152;36.614;2022-08-02T14:45:07;1.90;;;1.65;;
58055;SDS011;53159;55.152;36.614;2022-08-02T14:47:34;4.95;;;1.50;;
58055;SDS011;53159;55.152;36.614;2022-08-02T14:50:01;2.55;;;2.25;;
58055;SDS011;53159;55.152;36.614;2022-08-02T14:52:29;4.30;;;1.73;;
58055;SDS011;53159;55.152;36.614;2022-08-02T14:54:56;10.38;;;3.17;;
58055;SDS011;53159;55.152;36.614;2022-08-02T14:57:23;3.65;;;2.00;;
58055;SDS011;53159;55.152;36.614;2022-08-02T14:59:50;3.78;;;2.10;;
58055;SDS011;53159;55.152;36.614;2022-08-02T15:02:17;4.30;;;2.17;;
58055;SDS011;53159;55.152;36.614;2022-08-02T15:04:44;2.75;;;1.98;;
58055;SDS011;53159;55.152;36.614;2022-08-02T15:07:12;4.38;;;2.05;;
58055;SDS011;53159;55.152;36.614;2022-08-02T15:09:40;3.35;;;2.17;;
58055;SDS011;53159;55.152;36.614;2022-08-02T15:12:10;2.78;;;2.17;;
58055;SDS011;53159;55.152;36.614;2022-08-02T15:14:38;5.25;;;2.30;;
58055;SDS011;53159;55.152;36.614;2022-08-02T15:17:05;4.88;;;2.67;;
58055;SDS011;53159;55.152;36.614;2022-08-02T15:19:33;9.82;;;2.53;;
58055;SDS011;53159;55.152;36.614;2022-08-02T15:22:01;4.45;;;2.20;;
58055;SDS011;53159;55.152;36.614;2022-08-02T15:24:28;5.93;;;3.10;;
58055;SDS011;53159;55.152;36.614;2022-08-02T15:26:55;6.28;;;3.42;;
58055;SDS011;53159;55.152;36.614;2022-08-02T15:29:22;8.50;;;3.10;;
58055;SDS011;53159;55.152;36.614;2022-08-02T15:31:50;5.95;;;2.45;;
58055;SDS011;53159;55.152;36.614;2022-08-02T15:34:16;6.05;;;2.70;;
58055;SDS011;53159;55.152;36.614;2022-08-02T15:36:43;3.65;;;2.30;;